Time;durP1;ratioP1;P1;durP2;ratioP2;P2;SDS_P1;SDS_P2;PMS_P1;PMS_P2;Temp;Humidity;BMP_temperature;BMP_pressure;BME280_temperature;BME280_humidity;BME280_pressure;Samples;Min_cycle;Max_cycle;Signal;HPM_P1;HPM_P2
2022/01/22 00:02:04;;;;;;;10.20;4.20;;;1.30;99.90;;;;;;4969952;28;20030;-73
2022/01/22 00:04:31;;;;;;;7.70;4.03;;;1.30;99.90;;;;;;4957215;28;20480;-72
2022/01/22 00:06:58;;;;;;;;;;;1.30;99.90;;;;;;4972346;28;20042;-73
2022/01/22 00:09:28;;;;;;;8.00;3.85;;;1.30;99.90;;;;;;4965162;28;20627;-72
2022/01/22 00:11:54;;;;;;;8.60;4.50;;;1.30;99.90;;;;;;4969664;28;20097;-72
2022/01/22 00:14:24;;;;;;;12.10;4.85;;;1.30;99.90;;;;;;4967460;28;20086;-73
2022/01/22 00:16:55;;;;;;;6.88;4.20;;;1.40;99.90;;;;;;4967044;28;20038;-72
2022/01/22 00:19:21;;;;;;;8.00;4.53;;;1.30;99.90;;;;;;4965809;28;20022;-72
2022/01/22 00:21:47;;;;;;;7.97;4.90;;;1.40;99.90;;;;;;4965450;28;20033;-72
2022/01/22 00:24:13;;;;;;;11.93;5.30;;;1.40;99.90;;;;;;4964986;28;20053;-72
2022/01/22 00:26:41;;;;;;;8.73;4.50;;;1.40;99.90;;;;;;4962717;28;20033;-73
2022/01/22 00:29:07;;;;;;;7.30;4.53;;;1.40;99.90;;;;;;4968218;28;20037;-72
2022/01/22 00:31:34;;;;;;;8.68;4.18;;;1.40;99.90;;;;;;4963873;28;20364;-72
2022/01/22 00:34:00;;;;;;;9.73;4.82;;;1.40;99.90;;;;;;4969907;28;20030;-72
2022/01/22 00:36:26;;;;;;;7.83;4.77;;;1.40;99.90;;;;;;4967511;28;20651;-72
2022/01/22 00:38:51;;;;;;;6.20;4.13;;;1.40;99.90;;;;;;4969259;28;20069;-72
2022/01/22 00:41:17;;;;;;;11.07;4.83;;;1.40;99.90;;;;;;4967524;28;20029;-72
2022/01/22 00:43:43;;;;;;;7.33;4.37;;;1.40;99.90;;;;;;4965145;28;20034;-72
2022/01/22 00:46:08;;;;;;;11.23;5.07;;;1.40;99.90;;;;;;4966659;28;20170;-73
2022/01/22 00:48:34;;;;;;;6.83;4.10;;;1.40;99.90;;;;;;4963679;28;20425;-72
2022/01/22 00:51:01;;;;;;;9.27;4.50;;;1.40;99.90;;;;;;4968032;28;20033;-72
2022/01/22 00:53:27;;;;;;;6.68;4.20;;;1.40;99.90;;;;;;4965518;28;20121;-72
2022/01/22 00:55:53;;;;;;;8.23;4.63;;;1.40;99.90;;;;;;4967388;28;20133;-73
2022/01/22 00:58:18;;;;;;;10.03;4.93;;;1.40;99.90;;;;;;4971195;28;20077;-72
2022/01/22 01:00:45;;;;;;;6.07;3.47;;;1.50;99.90;;;;;;4964274;28;20538;-75
2022/01/22 01:03:10;;;;;;;7.22;3.90;;;1.50;99.90;;;;;;4968408;28;20069;-73
2022/01/22 01:05:37;;;;;;;5.90;3.80;;;1.50;99.90;;;;;;4965878;28;20023;-72
2022/01/22 01:08:05;;;;;;;5.93;3.77;;;1.50;99.90;;;;;;4968040;28;20261;-72
2022/01/22 01:10:32;;;;;;;6.10;4.03;;;1.50;99.90;;;;;;4962843;28;20265;-73
2022/01/22 01:12:57;;;;;;;;;;;1.50;99.90;;;;;;4970747;28;20050;-72
2022/01/22 01:15:41;;;;;;;5.38;3.38;;;1.50;99.90;;;;;;4966281;28;19940;-72
2022/01/22 01:34:23;;;;;;;4.32;2.55;;;1.40;99.90;;;;;;4974816;28;20085;-72
2022/01/22 01:36:49;;;;;;;4.15;2.70;;;1.50;99.90;;;;;;4969966;28;20018;-73
2022/01/22 01:39:24;;;;;;;6.25;2.60;;;1.40;99.90;;;;;;4967331;28;20483;-73
2022/01/22 01:44:17;;;;;;;4.13;2.65;;;1.50;99.90;;;;;;4969488;28;20029;-73
2022/01/22 01:46:45;;;;;;;3.22;2.25;;;1.50;99.90;;;;;;4969311;28;20617;-73
2022/01/22 01:49:12;;;;;;;6.85;3.25;;;1.50;99.90;;;;;;4972053;28;20030;-73
2022/01/22 01:51:38;;;;;;;4.20;2.97;;;1.50;99.90;;;;;;4964096;28;20023;-73
2022/01/22 01:54:23;;;;;;;5.03;2.97;;;1.40;99.90;;;;;;4968074;28;20496;-72
2022/01/22 01:59:40;;;;;;;5.28;2.90;;;1.40;99.90;;;;;;4967676;28;20033;-73
2022/01/22 02:02:06;;;;;;;5.82;2.97;;;1.40;99.90;;;;;;4967917;28;20011;-72
2022/01/22 02:04:32;;;;;;;5.60;3.00;;;1.40;99.90;;;;;;4971625;28;20038;-70
2022/01/22 02:06:58;;;;;;;3.60;2.42;;;1.40;99.90;;;;;;4970610;28;20103;-70
2022/01/22 02:09:24;;;;;;;4.87;2.90;;;1.40;99.90;;;;;;4967195;28;20693;-72
2022/01/22 02:11:59;;;;;;;4.60;2.60;;;1.50;99.90;;;;;;4968037;28;20031;-72
2022/01/22 02:25:28;;;;;;;7.00;2.75;;;1.40;99.90;;;;;;4963719;28;20053;-72
2022/01/22 02:27:54;;;;;;;4.60;2.88;;;1.50;99.90;;;;;;4970465;28;20018;-73
2022/01/22 02:30:25;;;;;;;3.37;2.47;;;1.50;99.90;;;;;;4970885;28;20032;-72
2022/01/22 02:33:20;;;;;;;4.32;2.55;;;1.50;99.90;;;;;;4966836;28;20917;-72
2022/01/22 02:35:53;;;;;;;7.32;3.25;;;1.50;99.90;;;;;;4964608;28;20374;-73
2022/01/22 02:38:31;;;;;;;4.28;2.50;;;1.50;99.90;;;;;;4965470;28;20046;-72
2022/01/22 02:40:58;;;;;;;4.43;3.03;;;1.20;99.90;;;;;;4965162;28;20015;-73
2022/01/22 02:43:24;;;;;;;5.38;2.58;;;1.40;99.90;;;;;;4962004;28;20105;-73
2022/01/22 02:45:51;;;;;;;4.20;2.00;;;1.30;99.90;;;;;;4965110;28;20504;-72
2022/01/22 02:48:16;;;;;;;5.47;2.42;;;1.30;99.90;;;;;;4965218;28;20027;-73
2022/01/22 02:50:43;;;;;;;3.67;2.83;;;1.30;99.90;;;;;;4963227;28;20030;-74
2022/01/22 02:53:12;;;;;;;5.15;2.20;;;1.30;99.90;;;;;;4967718;28;20109;-73
2022/01/22 02:55:39;;;;;;;3.83;2.90;;;1.30;99.90;;;;;;4965497;28;20025;-73
2022/01/22 02:58:05;;;;;;;3.63;2.17;;;1.20;99.90;;;;;;4969240;28;20018;-72
2022/01/22 03:00:32;;;;;;;3.80;2.47;;;1.20;99.90;;;;;;4969977;28;20216;-73
2022/01/22 03:02:58;;;;;;;3.78;1.90;;;1.20;99.90;;;;;;4973192;28;20026;-73
2022/01/22 03:05:24;;;;;;;4.17;2.10;;;1.20;99.90;;;;;;4967671;28;20053;-73
2022/01/22 03:07:53;;;;;;;4.00;2.30;;;1.20;99.90;;;;;;4967597;28;20031;-73
2022/01/22 03:10:22;;;;;;;3.17;1.95;;;1.20;99.90;;;;;;4971720;28;20111;-73
2022/01/22 03:18:16;;;;;;;3.45;2.03;;;1.20;99.90;;;;;;4970627;28;20073;-73
2022/01/22 03:21:28;;;;;;;2.42;2.05;;;1.20;99.90;;;;;;4967882;28;20015;-73
2022/01/22 03:29:09;;;;;;;3.00;2.00;;;1.30;99.90;;;;;;4965235;28;20088;-73
2022/01/22 03:31:36;;;;;;;3.20;1.85;;;1.30;99.90;;;;;;4967931;28;20888;-72
2022/01/22 03:34:03;;;;;;;1.92;1.67;;;1.30;99.90;;;;;;4967970;28;20026;-73
2022/01/22 03:36:32;;;;;;;3.65;1.85;;;1.30;99.90;;;;;;4965792;28;21458;-73
2022/01/22 03:38:58;;;;;;;3.22;1.80;;;1.30;99.90;;;;;;4968994;28;20110;-72
2022/01/22 03:41:24;;;;;;;2.35;1.80;;;1.40;99.90;;;;;;4965890;28;20018;-73
2022/01/22 03:43:52;;;;;;;2.47;2.17;;;1.30;99.90;;;;;;4969959;28;20041;-72
2022/01/22 03:46:20;;;;;;;2.65;1.75;;;1.40;99.90;;;;;;4972122;28;20065;-73
2022/01/22 03:48:46;;;;;;;3.15;2.17;;;1.40;99.90;;;;;;4963558;28;20026;-73
2022/01/22 03:51:12;;;;;;;4.32;1.58;;;1.40;99.90;;;;;;4971885;28;20022;-73
2022/01/22 03:53:39;;;;;;;2.37;1.43;;;1.30;99.90;;;;;;4963810;28;20737;-72
2022/01/22 03:56:07;;;;;;;2.53;1.52;;;1.30;99.90;;;;;;4968354;28;20105;-73
2022/01/22 03:58:36;;;;;;;2.42;1.65;;;1.30;99.90;;;;;;4982837;28;20022;-72
2022/01/22 04:03:43;;;;;;;2.67;1.63;;;1.30;99.90;;;;;;4963906;28;20401;-72
2022/01/22 04:08:39;;;;;;;1.90;1.80;;;1.30;99.90;;;;;;4963449;28;20042;-72
2022/01/22 04:11:09;;;;;;;1.55;1.20;;;1.30;99.90;;;;;;4965568;28;20038;-72
2022/01/22 04:13:35;;;;;;;6.75;1.58;;;1.20;99.90;;;;;;4961453;28;20089;-73
2022/01/22 04:16:01;;;;;;;3.58;1.30;;;1.10;99.90;;;;;;4966841;28;20031;-74
2022/01/22 04:26:54;;;;;;;2.45;1.75;;;1.10;99.90;;;;;;4962376;28;20088;-73
2022/01/22 04:29:25;;;;;;;1.90;1.30;;;1.10;99.90;;;;;;4967085;28;20081;-72
2022/01/22 04:31:51;;;;;;;2.60;1.60;;;1.20;99.90;;;;;;4965701;28;20031;-73
2022/01/22 04:34:17;;;;;;;2.30;1.73;;;1.20;99.90;;;;;;4967047;28;20031;-73
2022/01/22 04:36:43;;;;;;;3.47;1.48;;;1.20;99.90;;;;;;4967168;28;20023;-73
2022/01/22 04:39:09;;;;;;;1.77;1.60;;;1.20;99.90;;;;;;4968178;28;20037;-73
2022/01/22 04:41:37;;;;;;;1.50;1.40;;;1.20;99.90;;;;;;4961313;28;20432;-73
2022/01/22 04:44:05;;;;;;;1.77;1.40;;;1.20;99.90;;;;;;4965166;28;20611;-73
2022/01/22 04:57:06;;;;;;;1.23;1.13;;;1.30;99.90;;;;;;4969536;28;20096;-73
2022/01/22 04:59:33;;;;;;;1.23;1.10;;;1.30;99.90;;;;;;4968154;28;20022;-73
2022/01/22 05:01:58;;;;;;;;;;;1.30;99.90;;;;;;4972496;28;20716;-72
2022/01/22 05:04:24;;;;;;;7.50;1.48;;;1.30;99.90;;;;;;4970346;28;20007;-74
2022/01/22 05:06:53;;;;;;;1.97;1.50;;;1.40;99.90;;;;;;4966344;28;20452;-73
2022/01/22 05:09:18;;;;;;;1.23;1.13;;;1.40;99.90;;;;;;4966529;28;20029;-73
2022/01/22 05:11:44;;;;;;;1.97;1.10;;;1.40;99.90;;;;;;4966677;28;20073;-72
2022/01/22 05:14:10;;;;;;;1.50;1.30;;;1.40;99.90;;;;;;4971113;28;20372;-73
2022/01/22 05:16:37;;;;;;;2.27;1.73;;;1.40;99.90;;;;;;4968636;28;20029;-73
2022/01/22 05:22:00;;;;;;;2.25;1.60;;;1.30;99.90;;;;;;4963417;28;20038;-73
2022/01/22 05:24:30;;;;;;;2.50;1.52;;;1.20;99.90;;;;;;4968144;28;20030;-73
2022/01/22 05:37:27;;;;;;;2.50;1.55;;;1.30;99.90;;;;;;4973901;28;20125;-73
2022/01/22 05:39:53;;;;;;;1.60;1.30;;;1.40;99.90;;;;;;4968993;28;20040;-72
2022/01/22 05:42:19;;;;;;;2.63;1.70;;;1.30;99.90;;;;;;4971136;28;20034;-72
2022/01/22 05:44:45;;;;;;;2.67;1.40;;;1.30;99.90;;;;;;4968567;28;20026;-72
2022/01/22 05:47:13;;;;;;;1.80;1.30;;;1.30;99.90;;;;;;4970852;28;20038;-72
2022/01/22 05:49:42;;;;;;;1.40;1.30;;;1.30;99.90;;;;;;4964368;28;20038;-73
2022/01/22 05:52:10;;;;;;;1.70;1.50;;;1.30;99.90;;;;;;4968903;28;20022;-73
2022/01/22 06:00:07;;;;;;;2.72;1.42;;;1.30;99.90;;;;;;4965500;28;20043;-72
2022/01/22 06:02:33;;;;;;;1.50;1.40;;;1.30;99.90;;;;;;4967876;28;20018;-73
2022/01/22 06:05:00;;;;;;;1.80;1.53;;;1.40;99.90;;;;;;4971558;28;20033;-73
2022/01/22 06:07:26;;;;;;;3.72;1.90;;;1.40;99.90;;;;;;4975885;28;20109;-73
2022/01/22 06:10:04;;;;;;;3.63;1.92;;;1.40;99.90;;;;;;4964188;28;20031;-74
2022/01/22 06:14:55;;;;;;;1.90;1.67;;;1.40;99.90;;;;;;4970351;28;19917;-73
2022/01/22 06:17:23;;;;;;;2.57;1.60;;;1.40;99.90;;;;;;4967663;28;20034;-73
2022/01/22 06:19:48;;;;;;;1.52;1.42;;;1.40;99.90;;;;;;4967239;28;20035;-73
2022/01/22 06:22:16;;;;;;;2.07;1.43;;;1.40;99.90;;;;;;4965805;28;20033;-73
2022/01/22 06:24:43;;;;;;;2.15;1.88;;;1.40;99.90;;;;;;4967905;28;20053;-73
2022/01/22 06:27:08;;;;;;;1.63;1.40;;;1.50;99.90;;;;;;4965584;28;20352;-72
2022/01/22 06:29:34;;;;;;;2.87;1.70;;;1.50;99.90;;;;;;4970116;28;20089;-73
2022/01/22 06:32:00;;;;;;;4.03;1.83;;;1.50;99.90;;;;;;4971497;28;20452;-73
2022/01/22 06:34:25;;;;;;;2.80;1.87;;;1.50;99.90;;;;;;4974460;28;20027;-72
2022/01/22 06:36:51;;;;;;;3.40;1.97;;;1.50;99.90;;;;;;4966971;28;20026;-72
2022/01/22 06:39:21;;;;;;;1.77;1.67;;;1.50;99.90;;;;;;4969351;28;20042;-72
2022/01/22 06:41:47;;;;;;;2.40;2.10;;;1.60;99.90;;;;;;4961729;28;20074;-72
2022/01/22 06:44:34;;;;;;;3.22;1.80;;;1.60;99.90;;;;;;4965975;28;20605;-74
2022/01/22 06:47:00;;;;;;;2.03;1.90;;;1.60;99.90;;;;;;4963668;28;20728;-72
2022/01/22 06:49:26;;;;;;;2.60;1.95;;;1.60;99.90;;;;;;4968262;28;20049;-73
2022/01/22 06:51:54;;;;;;;2.43;1.77;;;1.60;99.90;;;;;;4962217;28;20069;-73
2022/01/22 06:54:21;;;;;;;2.03;1.80;;;1.60;99.90;;;;;;4966457;28;20066;-73
2022/01/22 06:56:47;;;;;;;3.28;1.80;;;1.60;99.90;;;;;;4957557;28;20089;-74
2022/01/22 06:59:13;;;;;;;2.20;1.95;;;1.60;99.90;;;;;;4966009;28;20026;-72
2022/01/22 07:01:39;;;;;;;2.03;1.77;;;1.70;99.90;;;;;;4968682;28;20030;-73
2022/01/22 07:04:06;;;;;;;2.33;1.95;;;1.70;99.90;;;;;;4971850;28;20035;-75
2022/01/22 07:06:33;;;;;;;2.63;2.05;;;1.70;99.90;;;;;;4964630;28;20676;-73
2022/01/22 07:08:59;;;;;;;2.67;1.73;;;1.80;99.90;;;;;;4966517;28;20027;-72
2022/01/22 07:11:24;;;;;;;2.13;1.73;;;1.80;99.90;;;;;;4967040;28;20034;-74
2022/01/22 07:13:51;;;;;;;2.30;1.70;;;1.80;99.90;;;;;;4966749;28;20061;-73
2022/01/22 07:16:18;;;;;;;1.67;1.45;;;1.80;99.90;;;;;;4968847;28;20077;-73
2022/01/22 07:18:45;;;;;;;1.38;1.20;;;1.90;99.90;;;;;;4962457;28;20037;-73
2022/01/22 07:21:16;;;;;;;2.50;1.50;;;1.90;99.90;;;;;;4967602;28;20557;-73
2022/01/22 07:26:16;;;;;;;2.28;1.50;;;2.00;99.90;;;;;;4969002;28;20033;-72
2022/01/22 07:28:42;;;;;;;1.48;1.38;;;2.10;99.90;;;;;;4965261;28;20026;-73
2022/01/22 07:31:08;;;;;;;4.35;1.85;;;2.10;99.90;;;;;;4960448;28;20384;-72
2022/01/22 07:33:34;;;;;;;2.25;1.60;;;2.00;99.90;;;;;;4964864;28;20773;-73
2022/01/22 07:36:02;;;;;;;1.73;1.50;;;2.10;99.90;;;;;;4964172;28;20048;-72
2022/01/22 07:38:27;;;;;;;4.60;2.08;;;2.00;99.90;;;;;;4964903;28;20041;-73
2022/01/22 07:40:53;;;;;;;1.10;1.10;;;2.10;99.90;;;;;;4963108;28;20468;-73
2022/01/22 07:43:20;;;;;;;1.97;1.47;;;2.10;99.90;;;;;;4968129;28;20058;-72
2022/01/22 07:45:45;;;;;;;1.63;1.40;;;2.20;99.90;;;;;;4962756;28;20026;-73
2022/01/22 07:48:11;;;;;;;1.73;1.60;;;2.30;99.90;;;;;;4967555;28;20022;-72
2022/01/22 07:50:37;;;;;;;1.03;0.93;;;2.30;99.90;;;;;;4966214;28;20046;-72
2022/01/22 07:53:04;;;;;;;1.60;1.37;;;2.40;99.90;;;;;;4971414;28;20037;-72
2022/01/22 07:55:30;;;;;;;1.30;1.20;;;2.50;99.90;;;;;;4968317;28;20531;-70
2022/01/22 07:57:56;;;;;;;1.52;1.27;;;2.50;99.90;;;;;;4986207;28;20026;-70
2022/01/22 08:00:23;;;;;;;1.20;1.10;;;2.60;99.90;;;;;;4968535;28;20105;-70
2022/01/22 08:02:49;;;;;;;2.17;1.20;;;2.60;99.90;;;;;;4961887;28;20037;-73
2022/01/22 08:05:15;;;;;;;3.22;1.20;;;2.60;99.90;;;;;;4972321;28;20022;-71
2022/01/22 08:07:44;;;;;;;1.20;1.10;;;2.70;99.90;;;;;;4967295;28;20037;-73
2022/01/22 08:10:12;;;;;;;1.42;1.33;;;2.70;99.90;;;;;;4964607;28;20077;-73
2022/01/22 08:12:39;;;;;;;1.92;1.73;;;2.70;99.90;;;;;;4959433;28;20029;-70
2022/01/22 08:15:07;;;;;;;1.73;1.33;;;2.80;99.90;;;;;;4970307;28;20093;-71
2022/01/22 08:17:33;;;;;;;1.60;1.50;;;2.80;99.90;;;;;;4964279;28;20026;-72
2022/01/22 08:19:58;;;;;;;1.53;1.43;;;2.80;99.90;;;;;;4967030;28;20073;-70
2022/01/22 08:22:24;;;;;;;2.77;1.57;;;2.70;99.90;;;;;;4970743;28;20157;-71
2022/01/22 08:24:54;;;;;;;2.00;1.23;;;2.70;99.90;;;;;;4962044;28;20115;-72
2022/01/22 08:29:46;;;;;;;1.50;1.40;;;2.70;99.90;;;;;;4963022;28;20542;-72
2022/01/22 08:37:26;;;;;;;1.70;1.42;;;2.70;99.90;;;;;;4967236;28;20116;-72
2022/01/22 08:39:51;;;;;;;1.17;1.07;;;2.80;99.90;;;;;;4964965;28;20794;-71
2022/01/22 08:42:17;;;;;;;1.27;1.17;;;2.90;99.90;;;;;;4963308;28;20153;-71
2022/01/22 08:44:43;;;;;;;1.00;1.00;;;2.90;99.90;;;;;;4962795;28;20490;-71
2022/01/22 08:47:09;;;;;;;1.00;1.00;;;3.10;99.90;;;;;;4969111;28;20468;-72
2022/01/22 08:49:35;;;;;;;1.13;0.93;;;3.20;99.90;;;;;;4965955;28;20068;-73
2022/01/22 08:52:09;;;;;;;1.00;1.00;;;3.30;99.90;;;;;;4968739;28;20617;-73
2022/01/22 08:54:34;;;;;;;1.15;1.00;;;3.40;99.90;;;;;;4964754;28;20041;-76
2022/01/22 08:57:00;;;;;;;1.10;1.00;;;3.50;99.90;;;;;;4971494;28;20027;-72
2022/01/22 08:59:26;;;;;;;1.30;1.20;;;3.60;99.90;;;;;;4969956;28;20125;-74
2022/01/22 09:01:51;;;;;;;1.70;1.50;;;3.70;99.90;;;;;;4964872;28;20919;-71
2022/01/22 09:04:18;;;;;;;1.43;1.20;;;3.80;99.90;;;;;;4963532;28;20035;-74
2022/01/22 09:06:44;;;;;;;1.00;1.00;;;3.90;99.90;;;;;;4960344;28;20027;-73
2022/01/22 09:09:11;;;;;;;1.43;1.20;;;4.00;99.90;;;;;;4964205;28;20034;-71
2022/01/22 09:11:39;;;;;;;0.95;0.95;;;4.00;99.90;;;;;;4959869;28;20068;-72
2022/01/22 09:14:09;;;;;;;1.75;1.20;;;4.00;99.90;;;;;;4961435;28;20027;-70
2022/01/22 09:16:36;;;;;;;1.33;1.23;;;4.00;99.90;;;;;;4960506;28;21044;-71
2022/01/22 09:19:07;;;;;;;1.75;1.10;;;4.00;99.90;;;;;;4965246;28;20089;-71
2022/01/22 09:21:38;;;;;;;2.45;1.30;;;4.00;99.90;;;;;;4966843;28;20134;-71
2022/01/22 09:24:04;;;;;;;1.10;1.00;;;4.00;99.90;;;;;;4967018;28;20014;-72
2022/01/22 09:26:31;;;;;;;1.60;1.45;;;4.10;99.90;;;;;;4984198;28;20117;-74
2022/01/22 09:29:00;;;;;;;;;;;4.20;99.90;;;;;;4961308;28;20038;-73
2022/01/22 09:31:27;;;;;;;0.80;0.80;;;4.20;99.90;;;;;;4966563;28;19914;-71
2022/01/22 09:33:56;;;;;;;1.05;0.82;;;4.20;99.90;;;;;;4964510;28;20516;-72
2022/01/22 09:36:23;;;;;;;0.70;0.70;;;4.20;99.90;;;;;;4964859;28;20399;-71
2022/01/22 09:38:51;;;;;;;0.85;0.85;;;4.20;99.90;;;;;;4961351;28;20030;-72
2022/01/22 09:41:19;;;;;;;0.98;0.73;;;4.20;99.90;;;;;;4969599;28;20809;-71
2022/01/22 09:43:45;;;;;;;0.65;0.57;;;4.20;99.90;;;;;;4964953;28;20392;-71
2022/01/22 09:46:11;;;;;;;0.67;0.60;;;4.30;99.90;;;;;;4968673;28;20085;-72
2022/01/22 09:48:45;;;;;;;1.98;0.98;;;4.30;99.90;;;;;;4967033;28;20049;-71
2022/01/22 09:51:13;;;;;;;1.13;0.57;;;4.30;99.90;;;;;;4964357;28;20085;-71
2022/01/22 09:53:40;;;;;;;0.60;0.60;;;4.30;99.90;;;;;;4962329;28;20084;-72
2022/01/22 09:56:06;;;;;;;1.40;0.70;;;4.30;99.90;;;;;;4969530;28;20411;-71
2022/01/22 09:58:32;;;;;;;0.90;0.57;;;4.40;99.90;;;;;;4973505;28;20077;-72
2022/01/22 10:01:28;;;;;;;1.40;0.77;;;4.40;99.90;;;;;;4964562;28;20034;-71
2022/01/22 10:04:00;;;;;;;0.85;0.65;;;4.40;99.90;;;;;;4961876;28;20026;-72
2022/01/22 10:06:30;;;;;;;0.88;0.70;;;4.40;99.90;;;;;;4970362;28;20031;-74
2022/01/22 10:09:12;;;;;;;0.50;0.50;;;4.50;99.90;;;;;;4967924;28;20146;-72
2022/01/22 10:11:38;;;;;;;1.92;0.85;;;4.50;99.90;;;;;;4962688;28;20058;-71
2022/01/22 10:14:04;;;;;;;1.43;0.90;;;4.50;99.90;;;;;;4969544;28;20128;-71
2022/01/22 10:16:38;;;;;;;0.85;0.80;;;4.50;99.90;;;;;;4966533;28;20149;-71
2022/01/22 10:19:17;;;;;;;1.60;1.00;;;4.50;99.90;;;;;;4964234;28;20019;-70
2022/01/22 10:21:50;;;;;;;0.80;0.80;;;4.50;99.90;;;;;;4964195;28;20027;-71
2022/01/22 10:24:38;;;;;;;1.00;0.90;;;4.50;99.90;;;;;;4966735;28;20602;-70
2022/01/22 10:30:02;;;;;;;0.68;0.57;;;4.80;99.90;;;;;;4964405;28;20058;-71
2022/01/22 10:32:57;;;;;;;1.17;0.70;;;5.00;99.90;;;;;;4968223;28;20027;-72
2022/01/22 10:35:18;;;;;;;2.15;0.90;;;5.30;99.90;;;;;;4964338;28;20047;-71
2022/01/22 10:37:44;;;;;;;0.98;0.88;;;5.60;99.90;;;;;;4966612;28;20054;-72
2022/01/22 10:40:17;;;;;;;0.93;0.88;;;5.90;99.90;;;;;;4964084;28;20026;-72
2022/01/22 10:42:44;;;;;;;1.00;0.90;;;6.20;99.90;;;;;;4962047;28;20727;-72
2022/01/22 10:45:14;;;;;;;0.77;0.60;;;6.00;99.90;;;;;;4961987;28;20489;-75
2022/01/22 10:47:41;;;;;;;1.40;1.08;;;6.20;99.90;;;;;;4967559;28;20014;-75
2022/01/22 10:50:19;;;;;;;1.13;0.80;;;6.70;99.90;;;;;;4967157;28;20022;-71
2022/01/22 10:52:53;;;;;;;1.50;1.10;;;7.30;97.30;;;;;;4961571;28;20066;-71
2022/01/22 10:55:20;;;;;;;0.80;0.80;;;7.80;97.10;;;;;;4966340;28;20074;-71
2022/01/22 10:58:04;;;;;;;;;;;8.20;94.00;;;;;;4963930;28;20022;-71
2022/01/22 11:00:30;;;;;;;1.13;0.70;;;8.50;94.10;;;;;;4970146;28;20025;-71
2022/01/22 11:02:56;;;;;;;0.70;0.70;;;8.60;92.60;;;;;;4965730;28;20587;-72
2022/01/22 11:05:38;;;;;;;0.93;0.80;;;8.60;89.30;;;;;;4963685;28;20032;-71
2022/01/22 11:08:13;;;;;;;1.00;0.70;;;8.60;92.00;;;;;;4967095;28;20034;-71
2022/01/22 11:10:40;;;;;;;0.70;0.70;;;8.70;87.00;;;;;;4962261;28;20015;-71
2022/01/22 11:13:07;;;;;;;1.10;0.75;;;8.70;88.90;;;;;;4966324;28;20027;-71
2022/01/22 11:15:34;;;;;;;0.50;0.50;;;9.00;87.00;;;;;;4966512;28;20089;-70
2022/01/22 11:18:02;;;;;;;0.85;0.50;;;9.10;86.10;;;;;;4959091;28;20692;-71
2022/01/22 11:20:30;;;;;;;0.65;0.50;;;9.20;83.60;;;;;;4965756;28;20022;-70
2022/01/22 11:22:58;;;;;;;0.98;0.80;;;9.00;83.00;;;;;;4960243;28;20058;-75
2022/01/22 11:25:25;;;;;;;2.00;1.00;;;8.40;83.10;;;;;;4965943;28;20493;-72
2022/01/22 11:27:52;;;;;;;1.25;0.70;;;7.90;86.00;;;;;;4962296;28;20038;-72
2022/01/22 11:30:19;;;;;;;;;;;7.30;86.50;;;;;;4964715;28;20065;-71
2022/01/22 11:32:57;;;;;;;0.77;0.70;;;6.70;88.60;;;;;;4964944;28;19916;-71
2022/01/22 11:36:20;;;;;;;1.65;1.10;;;6.20;90.20;;;;;;4966344;28;20653;-71
2022/01/22 11:38:53;;;;;;;1.00;0.90;;;5.70;91.30;;;;;;4910319;29;20035;-71
2022/01/22 11:41:21;;;;;;;1.30;0.98;;;5.20;92.20;;;;;;4957507;28;20030;-70
2022/01/22 11:44:02;;;;;;;1.27;1.00;;;4.90;92.50;;;;;;4961500;28;20365;-71
2022/01/22 11:46:35;;;;;;;4.60;2.15;;;4.80;94.00;;;;;;4963915;28;20130;-71
2022/01/22 11:49:26;;;;;;;0.95;0.85;;;4.70;94.20;;;;;;4965966;28;20105;-70
2022/01/22 11:52:11;;;;;;;1.20;0.88;;;4.70;94.70;;;;;;4956688;28;20906;-71
2022/01/22 11:55:01;;;;;;;2.10;1.27;;;4.60;95.60;;;;;;4969017;28;20031;-71
2022/01/22 11:57:32;;;;;;;1.73;1.25;;;4.70;94.80;;;;;;4964241;28;20022;-70
2022/01/22 12:00:27;;;;;;;1.25;1.15;;;4.70;94.90;;;;;;4962703;28;20034;-71
2022/01/22 12:03:08;;;;;;;1.33;1.13;;;4.70;94.70;;;;;;4963102;28;20046;-70
2022/01/22 12:05:54;;;;;;;1.45;1.05;;;4.70;97.40;;;;;;4967942;28;20023;-71
2022/01/22 12:08:22;;;;;;;2.00;1.90;;;4.50;98.50;;;;;;4967654;28;20034;-70
2022/01/22 12:16:39;;;;;;;4.75;2.03;;;3.80;99.90;;;;;;4967354;28;20348;-70
2022/01/22 12:19:09;;;;;;;1.75;1.40;;;3.80;99.90;;;;;;4961197;28;20102;-70
2022/01/22 12:21:37;;;;;;;2.83;1.63;;;3.80;99.90;;;;;;4969013;28;20094;-70
2022/01/22 12:24:06;;;;;;;10.98;8.07;;;3.80;99.90;;;;;;4954988;28;20925;-70
2022/01/22 12:26:49;;;;;;;2.97;1.67;;;3.70;99.90;;;;;;4969301;28;20121;-70
2022/01/22 12:29:36;;;;;;;3.42;1.50;;;3.80;99.90;;;;;;4962848;28;20890;-71
2022/01/22 12:32:10;;;;;;;1.38;1.20;;;3.70;99.90;;;;;;4961063;28;20022;-71
2022/01/22 12:34:58;;;;;;;1.38;1.15;;;3.60;99.90;;;;;;4967611;28;20030;-70
2022/01/22 12:37:25;;;;;;;2.40;1.20;;;3.60;99.90;;;;;;4968025;28;20099;-71
2022/01/22 12:39:54;;;;;;;;;;;3.50;99.90;;;;;;4962026;28;20015;-72
2022/01/22 12:42:33;;;;;;;1.20;1.10;;;3.50;99.90;;;;;;4961121;28;20579;-71
2022/01/22 12:45:03;;;;;;;1.52;1.00;;;3.40;99.90;;;;;;4962407;28;20027;-70
2022/01/22 12:47:29;;;;;;;1.52;1.08;;;3.30;99.90;;;;;;4963065;28;20451;-71
2022/01/22 12:50:00;;;;;;;2.15;1.20;;;3.40;99.90;;;;;;4961067;28;20034;-71
2022/01/22 12:52:27;;;;;;;1.92;0.90;;;3.40;99.90;;;;;;4960068;28;20039;-70
2022/01/22 12:54:57;;;;;;;1.30;1.20;;;3.40;99.90;;;;;;4959207;28;20030;-70
2022/01/22 12:57:25;;;;;;;2.17;1.67;;;3.50;99.90;;;;;;4966540;28;20034;-70
2022/01/22 13:00:11;;;;;;;2.65;1.55;;;3.40;99.90;;;;;;4961992;28;20038;-71
2022/01/22 13:02:41;;;;;;;3.28;1.52;;;3.30;99.90;;;;;;4967639;28;20030;-71
2022/01/22 13:05:09;;;;;;;3.30;1.50;;;3.30;99.90;;;;;;4961783;28;20455;-71
2022/01/22 13:07:40;;;;;;;1.55;1.25;;;3.20;99.90;;;;;;4970126;28;20077;-70
2022/01/22 13:10:08;;;;;;;1.70;1.27;;;3.20;99.90;;;;;;4962157;28;20022;-71
2022/01/22 13:12:42;;;;;;;1.52;1.20;;;3.30;99.90;;;;;;4962958;28;20803;-70
2022/01/22 13:15:10;;;;;;;1.77;1.35;;;3.50;99.90;;;;;;4962170;28;20062;-72
2022/01/22 13:17:39;;;;;;;3.20;1.40;;;3.50;99.90;;;;;;4968453;28;20019;-75
2022/01/22 13:20:06;;;;;;;2.58;1.60;;;3.50;99.90;;;;;;4964531;28;20019;-72
2022/01/22 13:22:37;;;;;;;3.25;1.08;;;3.30;99.90;;;;;;4965750;28;20046;-71
2022/01/22 13:25:12;;;;;;;3.28;1.30;;;3.20;99.90;;;;;;4961475;28;20183;-73
2022/01/22 13:27:40;;;;;;;1.58;1.40;;;3.10;99.90;;;;;;4965706;28;20014;-71
2022/01/22 13:30:08;;;;;;;2.60;1.60;;;3.00;99.90;;;;;;4964886;28;20031;-71
2022/01/22 13:32:56;;;;;;;1.23;1.10;;;3.00;99.90;;;;;;4969316;28;20472;-71
2022/01/22 13:49:04;;;;;;;1.73;1.40;;;3.70;99.90;;;;;;4962765;28;20107;-71
2022/01/22 13:51:32;;;;;;;2.22;1.50;;;3.80;99.90;;;;;;4970536;28;20026;-71
2022/01/22 13:53:59;;;;;;;1.08;1.00;;;3.90;99.90;;;;;;4961998;28;20035;-71
2022/01/22 13:56:47;;;;;;;2.00;1.17;;;3.90;99.90;;;;;;4966718;28;20026;-71
2022/01/22 13:59:16;;;;;;;2.20;1.50;;;3.70;99.90;;;;;;4968048;28;20043;-71
2022/01/22 14:04:48;;;;;;;1.90;1.50;;;3.40;99.90;;;;;;4967728;28;20044;-71
2022/01/22 14:07:18;;;;;;;2.35;1.20;;;3.20;99.90;;;;;;4968847;28;20026;-71
2022/01/22 14:09:57;;;;;;;2.30;1.63;;;3.10;99.90;;;;;;4968118;28;20030;-72
2022/01/22 14:12:26;;;;;;;5.63;1.70;;;3.10;99.90;;;;;;4966923;28;20038;-71
2022/01/22 14:15:00;;;;;;;3.53;1.45;;;3.10;99.90;;;;;;4967287;28;20038;-72
2022/01/22 14:17:31;;;;;;;1.48;1.27;;;3.30;99.90;;;;;;4966426;28;20080;-71
2022/01/22 14:19:59;;;;;;;1.52;1.40;;;3.30;99.90;;;;;;4966287;28;20026;-71
2022/01/22 14:22:25;;;;;;;1.48;1.33;;;3.40;99.90;;;;;;4971577;28;20533;-71
2022/01/22 14:25:11;;;;;;;1.65;1.55;;;3.50;99.90;;;;;;4961085;28;20034;-71
2022/01/22 14:27:37;;;;;;;2.03;1.40;;;3.50;99.90;;;;;;4965589;28;20116;-75
2022/01/22 14:30:04;;;;;;;1.67;1.57;;;3.60;99.90;;;;;;4961971;28;20480;-72
2022/01/22 14:32:30;;;;;;;2.17;1.40;;;3.60;99.90;;;;;;4969537;28;20039;-71
2022/01/22 14:34:56;;;;;;;1.47;1.37;;;3.60;99.90;;;;;;4965443;28;20090;-72
2022/01/22 14:37:30;;;;;;;2.13;1.60;;;3.60;99.90;;;;;;4963661;28;20741;-76
2022/01/22 14:45:58;;;;;;;1.40;1.30;;;3.50;99.90;;;;;;4974489;28;20071;-72
2022/01/22 14:48:25;;;;;;;3.47;1.40;;;3.40;99.40;;;;;;4969393;28;20085;-71
2022/01/22 14:50:51;;;;;;;2.85;1.40;;;3.30;98.60;;;;;;4960251;28;20029;-72
2022/01/22 14:53:17;;;;;;;1.50;1.10;;;3.20;98.20;;;;;;4962704;28;20026;-70
2022/01/22 14:56:00;;;;;;;2.57;1.60;;;3.10;98.00;;;;;;4965969;28;20333;-72
2022/01/22 14:58:26;;;;;;;1.92;1.40;;;3.10;97.80;;;;;;4965784;28;20023;-71
2022/01/22 15:00:52;;;;;;;2.43;1.60;;;3.00;97.90;;;;;;4964063;28;20037;-71
2022/01/22 15:03:18;;;;;;;1.38;1.05;;;3.00;97.70;;;;;;4966101;28;20043;-71
2022/01/22 15:05:44;;;;;;;2.07;1.20;;;2.90;98.20;;;;;;4971146;28;20030;-71
2022/01/22 15:08:10;;;;;;;4.55;1.50;;;2.80;98.40;;;;;;4960203;28;20019;-71
2022/01/22 15:10:37;;;;;;;1.97;1.50;;;2.80;98.70;;;;;;4967163;28;20034;-71
2022/01/22 15:13:03;;;;;;;2.72;1.30;;;2.80;98.60;;;;;;4966893;28;20078;-71
2022/01/22 15:15:35;;;;;;;2.20;1.53;;;2.80;98.80;;;;;;4965124;28;20108;-71
2022/01/22 15:18:10;;;;;;;1.73;1.50;;;2.70;99.00;;;;;;4957506;28;20023;-71
2022/01/22 15:20:37;;;;;;;1.75;1.45;;;2.60;99.00;;;;;;4968191;28;20026;-71